PWSweather.com
Personal Weather Stations
Station Observations
KCOBLACK1
Chalet Park, Black Hawk, CO 80422

Chalet ParkBlack Hawk, CO 80422

Lat: 39.8294, Lon: -105.48

Elevation: 9370

Station Type: Vantage Pro2

http://www.oscaranddeb.com/weather

Latest ConditionsUpdated 7:45:00 PM MST Monday, Jan 16, 2017
Currently Today's Max Today's Min Today's Average
Temperature 30.1°F-1.1°C 36.9°F2.7°C 21.4°F-5.9°C 26.0°F-3.3°C
Dew Point 24.3°F-4.3°C 29.1°F-1.6°C 19.9°F-6.7°C 23.0°F-5.0°C
Winds 0.2 mph N0.3 kmh N 5.0 mph NE8.0 kmh NE - 1.5 mph 2.4 kmh
Wind Gusts 0.3 mph0.5 kmh 17.0 mph27.4 kmh - -
Humidity 79% 95% 73% 89%
Pressure 31.05 in1051.5 mb 31.10 in1053.2 mb 29.91 in1012.9 mb -
Precipitation - 0.17 in4.3 mm - -
Hour Temp Dew Point Humidity Winds Wind Gusts Pressure Precip Precip Rate Daily Precip Total
07:45 PM 30.1°F-1.1°C 24.3°F-4.3°C 79% 0.2 mph N0.3 kmh N 0.3 mph0.5 kmh 31.05 in1051.5 mb 0.07 in1.8 mm 0.84 in21.3 mm 0.17 in4.3 mm
07:40 PM 21.5°F-5.8°C 20.0°F-6.7°C 94% Calm Calm -- 30.14 in1020.7 mb 0.00 in0.0 mm 0.00 in0.0 mm 0.01 in0.3 mm
07:35 PM 30.0°F-1.1°C 24.2°F-4.3°C 79% 0.2 mph N0.3 kmh N 0.3 mph0.5 kmh 31.06 in1051.8 mb 0.07 in1.8 mm 0.12 in3.0 mm 0.16 in4.1 mm
07:30 PM 30.0°F-1.1°C 24.2°F-4.3°C 79% 0.2 mph N0.3 kmh N 0.3 mph0.5 kmh 31.06 in1051.8 mb 0.06 in1.5 mm 0.72 in18.3 mm 0.15 in3.8 mm
07:25 PM 21.5°F-5.8°C 20.0°F-6.7°C 94% Calm Calm -- 30.14 in1020.7 mb 0.00 in0.0 mm 0.00 in0.0 mm 0.01 in0.3 mm
07:20 PM 30.0°F-1.1°C 24.3°F-4.3°C 79% 0.2 mph N0.3 kmh N 0.2 mph0.3 kmh 31.07 in1052.2 mb 0.06 in1.5 mm 0.00 in0.0 mm 0.14 in3.6 mm
07:15 PM 30.0°F-1.1°C 24.3°F-4.3°C 79% 0.2 mph N0.3 kmh N 0.2 mph0.3 kmh 31.07 in1052.2 mb 0.07 in1.8 mm 0.00 in0.0 mm 0.14 in3.6 mm
07:10 PM 30.0°F-1.1°C 24.3°F-4.3°C 79% 0.1 mph N0.2 kmh N 0.2 mph0.3 kmh 31.07 in1052.2 mb 0.07 in1.8 mm 0.00 in0.0 mm 0.13 in3.3 mm
07:05 PM 30.0°F-1.1°C 24.4°F-4.2°C 79% 0.1 mph N0.2 kmh N 0.2 mph0.3 kmh 31.07 in1052.2 mb 0.07 in1.8 mm 0.00 in0.0 mm 0.13 in3.3 mm
07:00 PM 30.1°F-1.1°C 24.4°F-4.2°C 79% 0.1 mph N0.2 kmh N 0.2 mph0.3 kmh 31.08 in1052.5 mb 0.07 in1.8 mm 0.01 in0.3 mm 0.12 in3.0 mm
06:55 PM 30.1°F-1.1°C 24.5°F-4.2°C 79% 0.1 mph N0.2 kmh N 0.1 mph0.2 kmh 31.08 in1052.5 mb 0.06 in1.5 mm 0.00 in0.0 mm 0.11 in2.8 mm
06:50 PM 30.2°F-1.0°C 24.6°F-4.1°C 79% 0.1 mph N0.2 kmh N 0.1 mph0.2 kmh 31.08 in1052.5 mb 0.07 in1.8 mm 0.12 in3.0 mm 0.11 in2.8 mm
06:45 PM 30.2°F-1.0°C 24.7°F-4.1°C 79% 0.1 mph N0.2 kmh N 0.1 mph0.2 kmh 31.08 in1052.5 mb 0.06 in1.5 mm 0.00 in0.0 mm 0.10 in2.5 mm
06:40 PM 30.3°F-0.9°C 24.7°F-4.1°C 80% 0.1 mph N0.2 kmh N 0.1 mph0.2 kmh 31.09 in1052.8 mb 0.07 in1.8 mm 0.12 in3.0 mm 0.10 in2.5 mm
06:35 PM 30.4°F-0.9°C 24.8°F-4.0°C 80% 0.1 mph N0.2 kmh N 0.1 mph0.2 kmh 31.09 in1052.8 mb 0.06 in1.5 mm 0.00 in0.0 mm 0.09 in2.3 mm
06:30 PM 30.5°F-0.8°C 24.9°F-3.9°C 80% 0.1 mph N0.2 kmh N 0.1 mph0.2 kmh 31.09 in1052.8 mb 0.07 in1.8 mm 0.84 in21.3 mm 0.09 in2.3 mm
06:25 PM 21.4°F-5.9°C 19.9°F-6.7°C 94% Calm Calm -- 30.14 in1020.7 mb 0.00 in0.0 mm 0.00 in0.0 mm 0.01 in0.3 mm
06:20 PM 21.4°F-5.9°C 19.9°F-6.7°C 94% Calm Calm -- 30.14 in1020.7 mb 0.00 in0.0 mm 0.00 in0.0 mm 0.01 in0.3 mm
06:15 PM 21.4°F-5.9°C 19.9°F-6.7°C 94% Calm Calm -- 30.14 in1020.7 mb 0.00 in0.0 mm 0.00 in0.0 mm 0.01 in0.3 mm
06:10 PM 21.4°F-5.9°C 19.9°F-6.7°C 94% Calm Calm -- 30.14 in1020.7 mb 0.00 in0.0 mm 0.00 in0.0 mm 0.01 in0.3 mm
06:05 PM 21.4°F-5.9°C 19.9°F-6.7°C 94% Calm Calm -- 30.14 in1020.7 mb 0.00 in0.0 mm 0.00 in0.0 mm 0.01 in0.3 mm
06:00 PM 21.4°F-5.9°C 19.9°F-6.7°C 94% Calm Calm -- 30.13 in1020.3 mb 0.00 in0.0 mm 0.00 in0.0 mm 0.01 in0.3 mm
05:55 PM 21.4°F-5.9°C 19.9°F-6.7°C 94% Calm Calm -- 30.13 in1020.3 mb 0.00 in0.0 mm 0.00 in0.0 mm 0.01 in0.3 mm
05:50 PM 21.4°F-5.9°C 19.9°F-6.7°C 94% Calm Calm -- 30.13 in1020.3 mb 0.00 in0.0 mm 0.00 in0.0 mm 0.01 in0.3 mm
05:45 PM 21.4°F-5.9°C 19.9°F-6.7°C 94% Calm Calm -- 30.13 in1020.3 mb 0.00 in0.0 mm 0.00 in0.0 mm 0.01 in0.3 mm
05:40 PM 21.4°F-5.9°C 19.9°F-6.7°C 94% Calm Calm -- 30.13 in1020.3 mb 0.00 in0.0 mm 0.00 in0.0 mm 0.01 in0.3 mm
05:35 PM 21.5°F-5.8°C 20.0°F-6.7°C 94% Calm Calm -- 30.12 in1020.0 mb 0.00 in0.0 mm 0.00 in0.0 mm 0.01 in0.3 mm
05:30 PM 21.5°F-5.8°C 20.0°F-6.7°C 94% Calm Calm -- 30.12 in1020.0 mb 0.00 in0.0 mm 0.00 in0.0 mm 0.01 in0.3 mm
05:25 PM 21.5°F-5.8°C 20.0°F-6.7°C 94% Calm Calm -- 30.12 in1020.0 mb 0.00 in0.0 mm 0.00 in0.0 mm 0.01 in0.3 mm
05:20 PM 21.5°F-5.8°C 20.0°F-6.7°C 94% Calm Calm -- 30.11 in1019.6 mb 0.00 in0.0 mm 0.00 in0.0 mm 0.01 in0.3 mm
05:15 PM 21.6°F-5.8°C 20.1°F-6.6°C 94% Calm Calm 2.0 mph3.2 kmh 30.11 in1019.6 mb 0.00 in0.0 mm 0.00 in0.0 mm 0.01 in0.3 mm
05:10 PM 21.9°F-5.6°C 20.4°F-6.4°C 94% Calm Calm 2.0 mph3.2 kmh 30.10 in1019.3 mb 0.00 in0.0 mm 0.00 in0.0 mm 0.01 in0.3 mm
05:05 PM 22.0°F-5.6°C 20.5°F-6.4°C 94% 1.0 mph NE1.6 kmh NE 2.0 mph3.2 kmh 30.10 in1019.3 mb 0.00 in0.0 mm 0.00 in0.0 mm 0.01 in0.3 mm
05:00 PM 22.2°F-5.4°C 20.7°F-6.3°C 94% Calm Calm -- 30.10 in1019.3 mb 0.00 in0.0 mm 0.00 in0.0 mm 0.01 in0.3 mm
04:55 PM 22.4°F-5.3°C 20.7°F-6.3°C 93% Calm Calm -- 30.10 in1019.3 mb 0.00 in0.0 mm 0.00 in0.0 mm 0.01 in0.3 mm
04:50 PM 22.6°F-5.2°C 20.9°F-6.2°C 93% Calm Calm -- 30.09 in1019.0 mb 0.00 in0.0 mm 0.00 in0.0 mm 0.01 in0.3 mm
04:45 PM 23.0°F-5.0°C 21.3°F-5.9°C 93% Calm Calm -- 30.09 in1019.0 mb 0.00 in0.0 mm 0.00 in0.0 mm 0.01 in0.3 mm
04:40 PM 23.4°F-4.8°C 21.7°F-5.7°C 93% Calm Calm 2.0 mph3.2 kmh 30.09 in1019.0 mb 0.00 in0.0 mm 0.00 in0.0 mm 0.01 in0.3 mm
04:35 PM 23.9°F-4.5°C 22.2°F-5.4°C 93% Calm Calm -- 30.09 in1019.0 mb 0.00 in0.0 mm 0.00 in0.0 mm 0.01 in0.3 mm
04:30 PM 24.3°F-4.3°C 22.6°F-5.2°C 93% Calm Calm -- 30.08 in1018.6 mb 0.00 in0.0 mm 0.00 in0.0 mm 0.01 in0.3 mm
04:25 PM 32.3°F0.2°C 26.8°F-2.9°C 80% Calm Calm -- 31.10 in1053.2 mb 0.00 in0.0 mm 0.00 in0.0 mm 0.00 in0.0 mm
04:20 PM 32.5°F0.3°C 27.0°F-2.8°C 80% Calm Calm -- 31.10 in1053.2 mb 0.00 in0.0 mm 0.00 in0.0 mm 0.00 in0.0 mm
04:15 PM 24.3°F-4.3°C 22.6°F-5.2°C 93% Calm Calm 2.0 mph3.2 kmh 30.09 in1019.0 mb 0.00 in0.0 mm 0.00 in0.0 mm 0.01 in0.3 mm
04:10 PM 24.2°F-4.3°C 22.5°F-5.3°C 93% Calm Calm 2.0 mph3.2 kmh 30.08 in1018.6 mb 0.00 in0.0 mm 0.00 in0.0 mm 0.01 in0.3 mm
04:05 PM 24.1°F-4.4°C 22.4°F-5.3°C 93% Calm Calm -- 30.08 in1018.6 mb 0.00 in0.0 mm 0.00 in0.0 mm 0.01 in0.3 mm
04:00 PM 24.2°F-4.3°C 22.5°F-5.3°C 93% Calm Calm -- 30.07 in1018.3 mb 0.00 in0.0 mm 0.00 in0.0 mm 0.01 in0.3 mm
03:55 PM 24.4°F-4.2°C 22.7°F-5.2°C 93% Calm Calm -- 30.07 in1018.3 mb 0.00 in0.0 mm 0.00 in0.0 mm 0.01 in0.3 mm
03:50 PM 24.4°F-4.2°C 22.7°F-5.2°C 93% Calm Calm -- 30.07 in1018.3 mb 0.00 in0.0 mm 0.00 in0.0 mm 0.01 in0.3 mm
03:45 PM 24.5°F-4.2°C 22.5°F-5.3°C 92% Calm Calm 2.0 mph3.2 kmh 30.07 in1018.3 mb 0.00 in0.0 mm 0.00 in0.0 mm 0.01 in0.3 mm
03:40 PM 24.7°F-4.1°C 22.7°F-5.2°C 92% Calm Calm 1.0 mph1.6 kmh 30.07 in1018.3 mb 0.00 in0.0 mm 0.00 in0.0 mm 0.01 in0.3 mm
03:35 PM 24.8°F-4.0°C 23.1°F-4.9°C 93% Calm Calm -- 30.07 in1018.3 mb 0.00 in0.0 mm 0.00 in0.0 mm 0.01 in0.3 mm
03:30 PM 24.8°F-4.0°C 23.1°F-4.9°C 93% Calm Calm -- 30.07 in1018.3 mb 0.00 in0.0 mm 0.00 in0.0 mm 0.01 in0.3 mm
03:25 PM 36.9°F2.7°C 29.1°F-1.6°C 73% 1.1 mph NW1.8 kmh NW 1.4 mph2.3 kmh 30.87 in1045.4 mb 0.00 in0.0 mm 0.00 in0.0 mm 0.00 in0.0 mm
03:20 PM 36.6°F2.6°C 28.9°F-1.7°C 73% 1.1 mph NW1.8 kmh NW 1.4 mph2.3 kmh 30.88 in1045.7 mb 0.00 in0.0 mm 0.00 in0.0 mm 0.00 in0.0 mm
03:15 PM 24.7°F-4.1°C 22.7°F-5.2°C 92% Calm Calm 2.0 mph3.2 kmh 30.07 in1018.3 mb 0.00 in0.0 mm 0.00 in0.0 mm 0.01 in0.3 mm
03:10 PM 36.0°F2.2°C 28.4°F-2.0°C 74% 1.0 mph NW1.6 kmh NW 1.3 mph2.1 kmh 30.89 in1046.1 mb 0.00 in0.0 mm 0.00 in0.0 mm 0.00 in0.0 mm
03:05 PM 35.7°F2.1°C 28.2°F-2.1°C 74% 1.0 mph NW1.6 kmh NW 1.2 mph1.9 kmh 30.90 in1046.4 mb 0.00 in0.0 mm 0.00 in0.0 mm 0.00 in0.0 mm
03:00 PM 25.0°F-3.9°C 23.0°F-5.0°C 92% Calm Calm -- 30.06 in1017.9 mb 0.00 in0.0 mm 0.00 in0.0 mm 0.01 in0.3 mm
02:55 PM 25.0°F-3.9°C 22.8°F-5.1°C 91% Calm Calm -- 30.06 in1017.9 mb 0.00 in0.0 mm 0.00 in0.0 mm 0.01 in0.3 mm
02:50 PM 25.0°F-3.9°C 22.8°F-5.1°C 91% Calm Calm -- 30.06 in1017.9 mb 0.00 in0.0 mm 0.00 in0.0 mm 0.01 in0.3 mm
02:45 PM 34.5°F1.4°C 27.3°F-2.6°C 75% 0.9 mph NW1.4 kmh NW 1.1 mph1.8 kmh 30.92 in1047.1 mb 0.00 in0.0 mm 0.00 in0.0 mm 0.00 in0.0 mm
02:40 PM 34.2°F1.2°C 27.1°F-2.7°C 75% 0.9 mph NW1.4 kmh NW 1.0 mph1.6 kmh 30.93 in1047.4 mb 0.00 in0.0 mm 0.00 in0.0 mm 0.00 in0.0 mm
02:35 PM 34.0°F1.1°C 26.9°F-2.8°C 75% 0.8 mph NNW1.3 kmh NNW 1.0 mph1.6 kmh 30.93 in1047.4 mb 0.00 in0.0 mm 0.00 in0.0 mm 0.00 in0.0 mm
02:30 PM 33.7°F0.9°C 26.7°F-2.9°C 75% 0.8 mph NNW1.3 kmh NNW 1.0 mph1.6 kmh 30.94 in1047.7 mb 0.00 in0.0 mm 0.00 in0.0 mm 0.00 in0.0 mm
02:25 PM 33.5°F0.8°C 26.5°F-3.1°C 75% 0.8 mph NNW1.3 kmh NNW 0.9 mph1.4 kmh 30.95 in1048.1 mb 0.00 in0.0 mm 0.00 in0.0 mm 0.00 in0.0 mm
02:20 PM 33.2°F0.7°C 26.4°F-3.1°C 76% 0.7 mph NNW1.1 kmh NNW 0.9 mph1.4 kmh 30.95 in1048.1 mb 0.00 in0.0 mm 0.00 in0.0 mm 0.00 in0.0 mm
02:15 PM 33.0°F0.6°C 26.2°F-3.2°C 76% 0.7 mph NNW1.1 kmh NNW 0.9 mph1.4 kmh 30.96 in1048.4 mb 0.00 in0.0 mm 0.00 in0.0 mm 0.00 in0.0 mm
02:10 PM 32.8°F0.4°C 26.0°F-3.3°C 76% 0.7 mph NNW1.1 kmh NNW 0.8 mph1.3 kmh 30.96 in1048.4 mb 0.00 in0.0 mm 0.00 in0.0 mm 0.00 in0.0 mm
02:05 PM 32.5°F0.3°C 25.9°F-3.4°C 76% 0.7 mph NNW1.1 kmh NNW 0.8 mph1.3 kmh 30.97 in1048.8 mb 0.00 in0.0 mm 0.00 in0.0 mm 0.00 in0.0 mm
02:00 PM 32.3°F0.2°C 25.7°F-3.5°C 76% 0.6 mph NNW1.0 kmh NNW 0.8 mph1.3 kmh 30.98 in1049.1 mb 0.00 in0.0 mm 0.00 in0.0 mm 0.00 in0.0 mm
01:55 PM 32.1°F0.1°C 25.6°F-3.6°C 76% 0.6 mph NNW1.0 kmh NNW 0.7 mph1.1 kmh 30.98 in1049.1 mb 0.00 in0.0 mm 0.00 in0.0 mm 0.00 in0.0 mm
01:50 PM 31.9°F-0.1°C 25.4°F-3.7°C 77% 0.6 mph NNW1.0 kmh NNW 0.7 mph1.1 kmh 30.98 in1049.1 mb 0.00 in0.0 mm 0.00 in0.0 mm 0.00 in0.0 mm
01:45 PM 31.8°F-0.1°C 25.3°F-3.7°C 77% 0.5 mph NNW0.8 kmh NNW 0.7 mph1.1 kmh 30.99 in1049.4 mb 0.00 in0.0 mm 0.00 in0.0 mm 0.00 in0.0 mm
01:40 PM 31.6°F-0.2°C 25.2°F-3.8°C 77% 0.5 mph NNW0.8 kmh NNW 0.6 mph1.0 kmh 31.00 in1049.8 mb 0.00 in0.0 mm 0.00 in0.0 mm 0.00 in0.0 mm
01:35 PM 31.4°F-0.3°C 25.1°F-3.8°C 77% 0.5 mph NNW0.8 kmh NNW 0.6 mph1.0 kmh 31.00 in1049.8 mb 0.00 in0.0 mm 0.00 in0.0 mm 0.00 in0.0 mm
01:30 PM 31.3°F-0.4°C 24.9°F-3.9°C 77% 0.5 mph NNW0.8 kmh NNW 0.6 mph1.0 kmh 31.00 in1049.8 mb 0.00 in0.0 mm 0.00 in0.0 mm 0.00 in0.0 mm
01:25 PM 31.1°F-0.5°C 24.8°F-4.0°C 77% 0.5 mph NNW0.8 kmh NNW 0.6 mph1.0 kmh 31.01 in1050.1 mb 0.00 in0.0 mm 0.00 in0.0 mm 0.00 in0.0 mm
01:20 PM 31.0°F-0.6°C 24.8°F-4.0°C 77% 0.4 mph NNW0.6 kmh NNW 0.5 mph0.8 kmh 31.01 in1050.1 mb 0.00 in0.0 mm 0.00 in0.0 mm 0.00 in0.0 mm
01:15 PM 30.8°F-0.7°C 24.7°F-4.1°C 78% 0.4 mph N0.6 kmh N 0.5 mph0.8 kmh 31.02 in1050.5 mb 0.00 in0.0 mm 0.00 in0.0 mm 0.00 in0.0 mm
01:10 PM 30.7°F-0.7°C 24.6°F-4.1°C 78% 0.4 mph N0.6 kmh N 0.5 mph0.8 kmh 31.02 in1050.5 mb 0.00 in0.0 mm 0.00 in0.0 mm 0.00 in0.0 mm
01:05 PM 23.4°F-4.8°C 21.7°F-5.7°C 93% 2.0 mph NE3.2 kmh NE 5.0 mph8.0 kmh 30.05 in1017.6 mb 0.00 in0.0 mm 0.00 in0.0 mm 0.01 in0.3 mm
01:00 PM 30.5°F-0.8°C 24.5°F-4.2°C 78% 0.3 mph N0.5 kmh N 0.4 mph0.6 kmh 31.03 in1050.8 mb 0.00 in0.0 mm 0.00 in0.0 mm 0.00 in0.0 mm
12:55 PM 30.4°F-0.9°C 24.4°F-4.2°C 78% 0.3 mph N0.5 kmh N 0.4 mph0.6 kmh 31.04 in1051.1 mb 0.00 in0.0 mm 0.00 in0.0 mm 0.00 in0.0 mm
12:50 PM 30.3°F-0.9°C 24.4°F-4.2°C 78% 0.3 mph N0.5 kmh N 0.4 mph0.6 kmh 31.04 in1051.1 mb 0.00 in0.0 mm 0.00 in0.0 mm 0.00 in0.0 mm
12:45 PM 30.3°F-0.9°C 24.3°F-4.3°C 78% 0.3 mph N0.5 kmh N 0.4 mph0.6 kmh 31.04 in1051.1 mb 0.00 in0.0 mm 0.00 in0.0 mm 0.00 in0.0 mm
12:40 PM 30.2°F-1.0°C 24.3°F-4.3°C 78% 0.3 mph N0.5 kmh N 0.3 mph0.5 kmh 31.05 in1051.5 mb 0.00 in0.0 mm 0.00 in0.0 mm 0.00 in0.0 mm
12:35 PM 30.1°F-1.1°C 24.3°F-4.3°C 78% 0.3 mph N0.5 kmh N 0.3 mph0.5 kmh 31.05 in1051.5 mb 0.00 in0.0 mm 0.00 in0.0 mm 0.00 in0.0 mm
12:30 PM 30.1°F-1.1°C 24.3°F-4.3°C 79% 0.2 mph N0.3 kmh N 0.3 mph0.5 kmh 31.05 in1051.5 mb 0.00 in0.0 mm 0.00 in0.0 mm 0.00 in0.0 mm
12:25 PM 30.1°F-1.1°C 24.2°F-4.3°C 79% 0.2 mph N0.3 kmh N 0.3 mph0.5 kmh 31.06 in1051.8 mb 0.00 in0.0 mm 0.00 in0.0 mm 0.00 in0.0 mm
12:20 PM 30.0°F-1.1°C 24.2°F-4.3°C 79% 0.2 mph N0.3 kmh N 0.3 mph0.5 kmh 31.06 in1051.8 mb 0.00 in0.0 mm 0.00 in0.0 mm 0.00 in0.0 mm
12:15 PM 30.0°F-1.1°C 24.3°F-4.3°C 79% 0.2 mph N0.3 kmh N 0.2 mph0.3 kmh 31.06 in1051.8 mb 0.00 in0.0 mm 0.00 in0.0 mm 0.00 in0.0 mm
12:10 PM 30.0°F-1.1°C 24.3°F-4.3°C 79% 0.2 mph N0.3 kmh N 0.2 mph0.3 kmh 31.07 in1052.2 mb 0.00 in0.0 mm 0.00 in0.0 mm 0.00 in0.0 mm
12:05 PM 30.0°F-1.1°C 24.3°F-4.3°C 79% 0.2 mph N0.3 kmh N 0.2 mph0.3 kmh 31.07 in1052.2 mb 0.00 in0.0 mm 0.00 in0.0 mm 0.00 in0.0 mm
12:00 PM 30.0°F-1.1°C 24.3°F-4.3°C 79% 0.1 mph N0.2 kmh N 0.2 mph0.3 kmh 31.07 in1052.2 mb 0.00 in0.0 mm 0.00 in0.0 mm 0.00 in0.0 mm
11:55 AM 30.0°F-1.1°C 24.4°F-4.2°C 79% 0.1 mph N0.2 kmh N 0.2 mph0.3 kmh 31.07 in1052.2 mb 0.00 in0.0 mm 0.00 in0.0 mm 0.00 in0.0 mm
11:50 AM 30.1°F-1.1°C 24.4°F-4.2°C 79% 0.1 mph N0.2 kmh N 0.2 mph0.3 kmh 31.07 in1052.2 mb 0.00 in0.0 mm 0.00 in0.0 mm 0.00 in0.0 mm
11:45 AM 30.1°F-1.1°C 24.5°F-4.2°C 79% 0.1 mph N0.2 kmh N 0.1 mph0.2 kmh 31.08 in1052.5 mb 0.00 in0.0 mm 0.00 in0.0 mm 0.00 in0.0 mm
11:40 AM 30.2°F-1.0°C 24.6°F-4.1°C 79% 0.1 mph N0.2 kmh N 0.1 mph0.2 kmh 31.08 in1052.5 mb 0.00 in0.0 mm 0.00 in0.0 mm 0.00 in0.0 mm
11:35 AM 30.2°F-1.0°C 24.6°F-4.1°C 79% 0.1 mph N0.2 kmh N 0.1 mph0.2 kmh 31.08 in1052.5 mb 0.00 in0.0 mm 0.00 in0.0 mm 0.00 in0.0 mm
11:30 AM 30.3°F-0.9°C 24.7°F-4.1°C 80% 0.1 mph N0.2 kmh N 0.1 mph0.2 kmh 31.08 in1052.5 mb 0.00 in0.0 mm 0.00 in0.0 mm 0.00 in0.0 mm
11:25 AM 30.4°F-0.9°C 24.8°F-4.0°C 80% 0.1 mph N0.2 kmh N 0.1 mph0.2 kmh 31.09 in1052.8 mb 0.00 in0.0 mm 0.00 in0.0 mm 0.00 in0.0 mm
11:20 AM 30.4°F-0.9°C 24.9°F-3.9°C 80% 0.1 mph N0.2 kmh N 0.1 mph0.2 kmh 31.09 in1052.8 mb 0.00 in0.0 mm 0.00 in0.0 mm 0.00 in0.0 mm
11:15 AM 30.5°F-0.8°C 25.0°F-3.9°C 80% 0.1 mph N0.2 kmh N 0.1 mph0.2 kmh 31.09 in1052.8 mb 0.00 in0.0 mm 0.00 in0.0 mm 0.00 in0.0 mm
11:10 AM 30.6°F-0.8°C 25.1°F-3.8°C 80% Calm Calm 0.1 mph0.2 kmh 31.09 in1052.8 mb 0.00 in0.0 mm 0.00 in0.0 mm 0.00 in0.0 mm
11:05 AM 30.8°F-0.7°C 25.3°F-3.7°C 80% Calm Calm 0.1 mph0.2 kmh 31.09 in1052.8 mb 0.00 in0.0 mm 0.00 in0.0 mm 0.00 in0.0 mm
11:00 AM 30.9°F-0.6°C 25.4°F-3.7°C 80% Calm Calm -- 31.09 in1052.8 mb 0.00 in0.0 mm 0.00 in0.0 mm 0.00 in0.0 mm
10:55 AM 31.0°F-0.6°C 25.5°F-3.6°C 80% Calm Calm -- 31.09 in1052.8 mb 0.00 in0.0 mm 0.00 in0.0 mm 0.00 in0.0 mm
10:50 AM 31.2°F-0.4°C 25.7°F-3.5°C 80% Calm Calm -- 31.10 in1053.2 mb 0.00 in0.0 mm 0.00 in0.0 mm 0.00 in0.0 mm
10:45 AM 31.3°F-0.4°C 25.8°F-3.4°C 80% Calm Calm -- 31.10 in1053.2 mb 0.00 in0.0 mm 0.00 in0.0 mm 0.00 in0.0 mm
10:40 AM 31.5°F-0.3°C 26.0°F-3.3°C 80% Calm Calm -- 31.10 in1053.2 mb 0.00 in0.0 mm 0.00 in0.0 mm 0.00 in0.0 mm
10:35 AM 31.6°F-0.2°C 26.2°F-3.2°C 80% Calm Calm -- 31.10 in1053.2 mb 0.00 in0.0 mm 0.00 in0.0 mm 0.00 in0.0 mm
10:30 AM 31.8°F-0.1°C 26.3°F-3.2°C 80% Calm Calm -- 31.10 in1053.2 mb 0.00 in0.0 mm 0.00 in0.0 mm 0.00 in0.0 mm
10:25 AM 32.0°F0.0°C 26.5°F-3.1°C 80% Calm Calm -- 31.10 in1053.2 mb 0.00 in0.0 mm 0.00 in0.0 mm 0.00 in0.0 mm
10:20 AM 32.2°F0.1°C 26.7°F-2.9°C 80% Calm Calm -- 31.10 in1053.2 mb 0.00 in0.0 mm 0.00 in0.0 mm 0.00 in0.0 mm
10:15 AM 32.4°F0.2°C 26.9°F-2.8°C 80% Calm Calm -- 31.10 in1053.2 mb 0.00 in0.0 mm 0.00 in0.0 mm 0.00 in0.0 mm
10:10 AM 32.6°F0.3°C 27.1°F-2.7°C 80% Calm Calm -- 31.10 in1053.2 mb 0.00 in0.0 mm 0.00 in0.0 mm 0.00 in0.0 mm
10:05 AM 22.8°F-5.1°C 21.3°F-5.9°C 94% 3.0 mph NE4.8 kmh NE 12.0 mph19.3 kmh 30.07 in1018.3 mb 0.00 in0.0 mm 0.00 in0.0 mm 0.00 in0.0 mm
10:00 AM 22.7°F-5.2°C 21.2°F-6.0°C 94% 3.0 mph NE4.8 kmh NE 10.0 mph16.1 kmh 30.07 in1018.3 mb 0.00 in0.0 mm 0.00 in0.0 mm 0.00 in0.0 mm
09:55 AM 22.7°F-5.2°C 21.2°F-6.0°C 94% 3.0 mph NNE4.8 kmh NNE 14.0 mph22.5 kmh 30.07 in1018.3 mb 0.00 in0.0 mm 0.00 in0.0 mm 0.00 in0.0 mm
09:50 AM 22.7°F-5.2°C 21.2°F-6.0°C 94% 5.0 mph NE8.0 kmh NE 10.0 mph16.1 kmh 30.06 in1017.9 mb 0.00 in0.0 mm 0.00 in0.0 mm 0.00 in0.0 mm
09:45 AM 22.7°F-5.2°C 21.2°F-6.0°C 94% 3.0 mph NE4.8 kmh NE 9.0 mph14.5 kmh 30.06 in1017.9 mb 0.00 in0.0 mm 0.00 in0.0 mm 0.00 in0.0 mm
09:40 AM 22.6°F-5.2°C 20.9°F-6.2°C 93% 2.0 mph NNE3.2 kmh NNE 8.0 mph12.9 kmh 30.06 in1017.9 mb 0.00 in0.0 mm 0.00 in0.0 mm 0.00 in0.0 mm
09:35 AM 22.6°F-5.2°C 20.9°F-6.2°C 93% 4.0 mph NE6.4 kmh NE 12.0 mph19.3 kmh 30.05 in1017.6 mb 0.00 in0.0 mm 0.00 in0.0 mm 0.00 in0.0 mm
09:30 AM 22.6°F-5.2°C 20.9°F-6.2°C 93% 4.0 mph NE6.4 kmh NE 9.0 mph14.5 kmh 30.05 in1017.6 mb 0.00 in0.0 mm 0.00 in0.0 mm 0.00 in0.0 mm
09:25 AM 22.7°F-5.2°C 21.0°F-6.1°C 93% 4.0 mph NE6.4 kmh NE 10.0 mph16.1 kmh 30.05 in1017.6 mb 0.00 in0.0 mm 0.00 in0.0 mm 0.00 in0.0 mm
09:20 AM 22.8°F-5.1°C 21.1°F-6.1°C 93% 4.0 mph NE6.4 kmh NE 11.0 mph17.7 kmh 30.05 in1017.6 mb 0.00 in0.0 mm 0.00 in0.0 mm 0.00 in0.0 mm
09:15 AM 22.9°F-5.1°C 21.2°F-6.0°C 93% 4.0 mph NE6.4 kmh NE 13.0 mph20.9 kmh 30.04 in1017.3 mb 0.00 in0.0 mm 0.00 in0.0 mm 0.00 in0.0 mm
09:10 AM 22.9°F-5.1°C 21.2°F-6.0°C 93% 4.0 mph NE6.4 kmh NE 13.0 mph20.9 kmh 30.04 in1017.3 mb 0.00 in0.0 mm 0.00 in0.0 mm 0.00 in0.0 mm
09:05 AM 22.9°F-5.1°C 21.4°F-5.9°C 94% 4.0 mph NNE6.4 kmh NNE 12.0 mph19.3 kmh 30.03 in1016.9 mb 0.00 in0.0 mm 0.00 in0.0 mm 0.00 in0.0 mm
09:00 AM 23.0°F-5.0°C 21.5°F-5.8°C 94% 5.0 mph NE8.0 kmh NE 14.0 mph22.5 kmh 30.03 in1016.9 mb 0.00 in0.0 mm 0.00 in0.0 mm 0.00 in0.0 mm
08:55 AM 23.0°F-5.0°C 21.3°F-5.9°C 93% 4.0 mph NE6.4 kmh NE 12.0 mph19.3 kmh 30.03 in1016.9 mb 0.00 in0.0 mm 0.00 in0.0 mm 0.00 in0.0 mm
08:50 AM 23.1°F-4.9°C 21.4°F-5.9°C 93% 4.0 mph NE6.4 kmh NE 17.0 mph27.4 kmh 30.02 in1016.6 mb 0.00 in0.0 mm 0.00 in0.0 mm 0.00 in0.0 mm
08:45 AM 23.2°F-4.9°C 21.7°F-5.7°C 94% 3.0 mph NE4.8 kmh NE 12.0 mph19.3 kmh 30.02 in1016.6 mb 0.00 in0.0 mm 0.00 in0.0 mm 0.00 in0.0 mm
08:40 AM 23.3°F-4.8°C 21.8°F-5.7°C 94% 5.0 mph NE8.0 kmh NE 16.0 mph25.7 kmh 30.02 in1016.6 mb 0.00 in0.0 mm 0.00 in0.0 mm 0.00 in0.0 mm
08:35 AM 23.5°F-4.7°C 22.0°F-5.6°C 94% 3.0 mph NE4.8 kmh NE 12.0 mph19.3 kmh 30.02 in1016.6 mb 0.00 in0.0 mm 0.00 in0.0 mm 0.00 in0.0 mm
08:30 AM 23.5°F-4.7°C 22.0°F-5.6°C 94% 3.0 mph NE4.8 kmh NE 11.0 mph17.7 kmh 30.02 in1016.6 mb 0.00 in0.0 mm 0.00 in0.0 mm 0.00 in0.0 mm
08:25 AM 23.6°F-4.7°C 22.1°F-5.5°C 94% 3.0 mph NE4.8 kmh NE 11.0 mph17.7 kmh 30.02 in1016.6 mb 0.00 in0.0 mm 0.00 in0.0 mm 0.00 in0.0 mm
08:20 AM 23.6°F-4.7°C 22.1°F-5.5°C 94% 2.0 mph NNE3.2 kmh NNE 9.0 mph14.5 kmh 30.01 in1016.3 mb 0.00 in0.0 mm 0.00 in0.0 mm 0.00 in0.0 mm
08:15 AM 23.7°F-4.6°C 22.2°F-5.4°C 94% 2.0 mph NE3.2 kmh NE 7.0 mph11.3 kmh 30.01 in1016.3 mb 0.00 in0.0 mm 0.00 in0.0 mm 0.00 in0.0 mm
08:10 AM 23.7°F-4.6°C 22.2°F-5.4°C 94% 3.0 mph NE4.8 kmh NE 10.0 mph16.1 kmh 30.01 in1016.3 mb 0.00 in0.0 mm 0.00 in0.0 mm 0.00 in0.0 mm
08:05 AM 23.7°F-4.6°C 22.2°F-5.4°C 94% 2.0 mph NE3.2 kmh NE 9.0 mph14.5 kmh 30.00 in1015.9 mb 0.00 in0.0 mm 0.00 in0.0 mm 0.00 in0.0 mm
08:00 AM 23.8°F-4.6°C 22.3°F-5.4°C 94% 1.0 mph NE1.6 kmh NE 7.0 mph11.3 kmh 30.00 in1015.9 mb 0.00 in0.0 mm 0.00 in0.0 mm 0.00 in0.0 mm
07:55 AM 23.8°F-4.6°C 22.3°F-5.4°C 94% 2.0 mph NE3.2 kmh NE 5.0 mph8.0 kmh 30.00 in1015.9 mb 0.00 in0.0 mm 0.00 in0.0 mm 0.00 in0.0 mm
07:50 AM 23.8°F-4.6°C 22.3°F-5.4°C 94% 2.0 mph NE3.2 kmh NE 9.0 mph14.5 kmh 29.99 in1015.6 mb 0.00 in0.0 mm 0.00 in0.0 mm 0.00 in0.0 mm
07:45 AM 23.9°F-4.5°C 22.4°F-5.3°C 94% 2.0 mph NE3.2 kmh NE 5.0 mph8.0 kmh 29.99 in1015.6 mb 0.00 in0.0 mm 0.00 in0.0 mm 0.00 in0.0 mm
07:40 AM 24.0°F-4.4°C 22.5°F-5.3°C 94% 1.0 mph ENE1.6 kmh ENE 4.0 mph6.4 kmh 29.99 in1015.6 mb 0.00 in0.0 mm 0.00 in0.0 mm 0.00 in0.0 mm
07:35 AM 24.0°F-4.4°C 22.5°F-5.3°C 94% 3.0 mph NE4.8 kmh NE 7.0 mph11.3 kmh 29.99 in1015.6 mb 0.00 in0.0 mm 0.00 in0.0 mm 0.00 in0.0 mm
07:30 AM 24.1°F-4.4°C 22.6°F-5.2°C 94% 3.0 mph NE4.8 kmh NE 7.0 mph11.3 kmh 29.98 in1015.2 mb 0.00 in0.0 mm 0.00 in0.0 mm 0.00 in0.0 mm
07:25 AM 24.2°F-4.3°C 22.7°F-5.2°C 94% 2.0 mph NE3.2 kmh NE 9.0 mph14.5 kmh 29.98 in1015.2 mb 0.00 in0.0 mm 0.00 in0.0 mm 0.00 in0.0 mm
07:20 AM 24.3°F-4.3°C 22.8°F-5.1°C 94% 2.0 mph NE3.2 kmh NE 7.0 mph11.3 kmh 29.98 in1015.2 mb 0.00 in0.0 mm 0.00 in0.0 mm 0.00 in0.0 mm
07:15 AM 24.3°F-4.3°C 22.8°F-5.1°C 94% 2.0 mph NE3.2 kmh NE 5.0 mph8.0 kmh 29.97 in1014.9 mb 0.00 in0.0 mm 0.00 in0.0 mm 0.00 in0.0 mm
07:10 AM 24.3°F-4.3°C 22.8°F-5.1°C 94% 3.0 mph NE4.8 kmh NE 6.0 mph9.7 kmh 29.97 in1014.9 mb 0.00 in0.0 mm 0.00 in0.0 mm 0.00 in0.0 mm
07:05 AM 24.3°F-4.3°C 22.8°F-5.1°C 94% 3.0 mph NE4.8 kmh NE 9.0 mph14.5 kmh 29.97 in1014.9 mb 0.00 in0.0 mm 0.00 in0.0 mm 0.00 in0.0 mm
07:00 AM 24.4°F-4.2°C 22.9°F-5.1°C 94% 3.0 mph NE4.8 kmh NE 9.0 mph14.5 kmh 29.96 in1014.6 mb 0.00 in0.0 mm 0.00 in0.0 mm 0.00 in0.0 mm
06:55 AM 24.4°F-4.2°C 22.9°F-5.1°C 94% 3.0 mph NE4.8 kmh NE 10.0 mph16.1 kmh 29.97 in1014.9 mb 0.00 in0.0 mm 0.00 in0.0 mm 0.00 in0.0 mm
06:50 AM 24.5°F-4.2°C 23.0°F-5.0°C 94% 2.0 mph NE3.2 kmh NE 8.0 mph12.9 kmh 29.96 in1014.6 mb 0.00 in0.0 mm 0.00 in0.0 mm 0.00 in0.0 mm
06:45 AM 24.5°F-4.2°C 23.0°F-5.0°C 94% 2.0 mph NE3.2 kmh NE 8.0 mph12.9 kmh 29.96 in1014.6 mb 0.00 in0.0 mm 0.00 in0.0 mm 0.00 in0.0 mm
06:40 AM 24.5°F-4.2°C 23.0°F-5.0°C 94% 2.0 mph NE3.2 kmh NE 6.0 mph9.7 kmh 29.96 in1014.6 mb 0.00 in0.0 mm 0.00 in0.0 mm 0.00 in0.0 mm
06:35 AM 24.6°F-4.1°C 23.1°F-4.9°C 94% 3.0 mph NE4.8 kmh NE 10.0 mph16.1 kmh 29.95 in1014.2 mb 0.00 in0.0 mm 0.00 in0.0 mm 0.00 in0.0 mm
06:30 AM 24.6°F-4.1°C 23.1°F-4.9°C 94% 4.0 mph NE6.4 kmh NE 13.0 mph20.9 kmh 29.95 in1014.2 mb 0.00 in0.0 mm 0.00 in0.0 mm 0.00 in0.0 mm
06:25 AM 24.6°F-4.1°C 23.1°F-4.9°C 94% 3.0 mph NE4.8 kmh NE 10.0 mph16.1 kmh 29.95 in1014.2 mb 0.00 in0.0 mm 0.00 in0.0 mm 0.00 in0.0 mm
06:20 AM 24.6°F-4.1°C 23.4°F-4.8°C 95% 3.0 mph NE4.8 kmh NE 17.0 mph27.4 kmh 29.95 in1014.2 mb 0.00 in0.0 mm 0.00 in0.0 mm 0.00 in0.0 mm
06:15 AM 24.5°F-4.2°C 23.3°F-4.8°C 95% 5.0 mph NE8.0 kmh NE 15.0 mph24.1 kmh 29.95 in1014.2 mb 0.00 in0.0 mm 0.00 in0.0 mm 0.00 in0.0 mm
06:10 AM 24.5°F-4.2°C 23.3°F-4.8°C 95% 4.0 mph NE6.4 kmh NE 10.0 mph16.1 kmh 29.95 in1014.2 mb 0.00 in0.0 mm 0.00 in0.0 mm 0.00 in0.0 mm
06:05 AM 24.5°F-4.2°C 23.3°F-4.8°C 95% 4.0 mph NE6.4 kmh NE 13.0 mph20.9 kmh 29.95 in1014.2 mb 0.00 in0.0 mm 0.00 in0.0 mm 0.00 in0.0 mm
06:00 AM 24.5°F-4.2°C 23.3°F-4.8°C 95% 4.0 mph NE6.4 kmh NE 11.0 mph17.7 kmh 29.94 in1013.9 mb 0.00 in0.0 mm 0.00 in0.0 mm 0.00 in0.0 mm
05:55 AM 24.5°F-4.2°C 23.3°F-4.8°C 95% 1.0 mph NE1.6 kmh NE 5.0 mph8.0 kmh 29.94 in1013.9 mb 0.00 in0.0 mm 0.00 in0.0 mm 0.00 in0.0 mm
05:50 AM 24.5°F-4.2°C 23.3°F-4.8°C 95% 3.0 mph NE4.8 kmh NE 10.0 mph16.1 kmh 29.94 in1013.9 mb 0.00 in0.0 mm 0.00 in0.0 mm 0.00 in0.0 mm
05:45 AM 24.6°F-4.1°C 23.4°F-4.8°C 95% 3.0 mph NE4.8 kmh NE 10.0 mph16.1 kmh 29.93 in1013.5 mb 0.00 in0.0 mm 0.00 in0.0 mm 0.00 in0.0 mm
05:40 AM 24.6°F-4.1°C 23.4°F-4.8°C 95% 3.0 mph NE4.8 kmh NE 12.0 mph19.3 kmh 29.93 in1013.5 mb 0.00 in0.0 mm 0.00 in0.0 mm 0.00 in0.0 mm
05:35 AM 24.6°F-4.1°C 23.4°F-4.8°C 95% 4.0 mph NE6.4 kmh NE 15.0 mph24.1 kmh 29.93 in1013.5 mb 0.00 in0.0 mm 0.00 in0.0 mm 0.00 in0.0 mm
05:30 AM 24.7°F-4.1°C 23.2°F-4.9°C 94% 5.0 mph NE8.0 kmh NE 16.0 mph25.7 kmh 29.93 in1013.5 mb 0.00 in0.0 mm 0.00 in0.0 mm 0.00 in0.0 mm
05:25 AM 24.7°F-4.1°C 23.2°F-4.9°C 94% 3.0 mph NE4.8 kmh NE 13.0 mph20.9 kmh 29.93 in1013.5 mb 0.00 in0.0 mm 0.00 in0.0 mm 0.00 in0.0 mm
05:20 AM 24.7°F-4.1°C 23.2°F-4.9°C 94% 3.0 mph NE4.8 kmh NE 9.0 mph14.5 kmh 29.93 in1013.5 mb 0.00 in0.0 mm 0.00 in0.0 mm 0.00 in0.0 mm
05:15 AM 24.7°F-4.1°C 23.2°F-4.9°C 94% 4.0 mph NE6.4 kmh NE 11.0 mph17.7 kmh 29.92 in1013.2 mb 0.00 in0.0 mm 0.00 in0.0 mm 0.00 in0.0 mm
05:10 AM 24.7°F-4.1°C 23.2°F-4.9°C 94% 3.0 mph NE4.8 kmh NE 11.0 mph17.7 kmh 29.92 in1013.2 mb 0.00 in0.0 mm 0.00 in0.0 mm 0.00 in0.0 mm
05:05 AM 24.7°F-4.1°C 23.2°F-4.9°C 94% 3.0 mph NNE4.8 kmh NNE 12.0 mph19.3 kmh 29.92 in1013.2 mb 0.00 in0.0 mm 0.00 in0.0 mm 0.00 in0.0 mm
05:00 AM 24.7°F-4.1°C 23.2°F-4.9°C 94% 5.0 mph NE8.0 kmh NE 14.0 mph22.5 kmh 29.92 in1013.2 mb 0.00 in0.0 mm 0.00 in0.0 mm 0.00 in0.0 mm
04:55 AM 24.7°F-4.1°C 23.2°F-4.9°C 94% 2.0 mph NE3.2 kmh NE 8.0 mph12.9 kmh 29.92 in1013.2 mb 0.00 in0.0 mm 0.00 in0.0 mm 0.00 in0.0 mm
04:50 AM 24.7°F-4.1°C 23.2°F-4.9°C 94% 4.0 mph NE6.4 kmh NE 11.0 mph17.7 kmh 29.92 in1013.2 mb 0.00 in0.0 mm 0.00 in0.0 mm 0.00 in0.0 mm
04:45 AM 24.7°F-4.1°C 23.2°F-4.9°C 94% 3.0 mph NE4.8 kmh NE 9.0 mph14.5 kmh 29.92 in1013.2 mb 0.00 in0.0 mm 0.00 in0.0 mm 0.00 in0.0 mm
04:40 AM 24.7°F-4.1°C 23.2°F-4.9°C 94% 3.0 mph NE4.8 kmh NE 9.0 mph14.5 kmh 29.92 in1013.2 mb 0.00 in0.0 mm 0.00 in0.0 mm 0.00 in0.0 mm
04:35 AM 24.7°F-4.1°C 23.2°F-4.9°C 94% 3.0 mph NE4.8 kmh NE 14.0 mph22.5 kmh 29.92 in1013.2 mb 0.00 in0.0 mm 0.00 in0.0 mm 0.00 in0.0 mm
04:30 AM 24.8°F-4.0°C 23.3°F-4.8°C 94% 4.0 mph NE6.4 kmh NE 14.0 mph22.5 kmh 29.91 in1012.9 mb 0.00 in0.0 mm 0.00 in0.0 mm 0.00 in0.0 mm
04:25 AM 24.8°F-4.0°C 23.3°F-4.8°C 94% 4.0 mph NE6.4 kmh NE 14.0 mph22.5 kmh 29.91 in1012.9 mb 0.00 in0.0 mm 0.00 in0.0 mm 0.00 in0.0 mm
04:20 AM 24.7°F-4.1°C 23.2°F-4.9°C 94% 3.0 mph NNE4.8 kmh NNE 11.0 mph17.7 kmh 29.91 in1012.9 mb 0.00 in0.0 mm 0.00 in0.0 mm 0.00 in0.0 mm
04:15 AM 24.6°F-4.1°C 23.1°F-4.9°C 94% 3.0 mph NE4.8 kmh NE 11.0 mph17.7 kmh 29.91 in1012.9 mb 0.00 in0.0 mm 0.00 in0.0 mm 0.00 in0.0 mm
04:10 AM 24.5°F-4.2°C 23.0°F-5.0°C 94% 3.0 mph NE4.8 kmh NE 11.0 mph17.7 kmh 29.91 in1012.9 mb 0.00 in0.0 mm 0.00 in0.0 mm 0.00 in0.0 mm
04:05 AM 24.4°F-4.2°C 22.9°F-5.1°C 94% 2.0 mph NE3.2 kmh NE 9.0 mph14.5 kmh 29.91 in1012.9 mb 0.00 in0.0 mm 0.00 in0.0 mm 0.00 in0.0 mm
04:00 AM 24.3°F-4.3°C 22.8°F-5.1°C 94% 2.0 mph NE3.2 kmh NE 8.0 mph12.9 kmh 29.91 in1012.9 mb 0.00 in0.0 mm 0.00 in0.0 mm 0.00 in0.0 mm
03:55 AM 24.1°F-4.4°C 22.6°F-5.2°C 94% 3.0 mph NE4.8 kmh NE 11.0 mph17.7 kmh 29.91 in1012.9 mb 0.00 in0.0 mm 0.00 in0.0 mm 0.00 in0.0 mm
03:50 AM 23.9°F-4.5°C 22.4°F-5.3°C 94% 3.0 mph NE4.8 kmh NE 8.0 mph12.9 kmh 29.91 in1012.9 mb 0.00 in0.0 mm 0.00 in0.0 mm 0.00 in0.0 mm
03:45 AM 23.7°F-4.6°C 22.2°F-5.4°C 94% 4.0 mph NE6.4 kmh NE 11.0 mph17.7 kmh 29.91 in1012.9 mb 0.00 in0.0 mm 0.00 in0.0 mm 0.00 in0.0 mm
03:40 AM 23.5°F-4.7°C 22.0°F-5.6°C 94% 2.0 mph NE3.2 kmh NE 6.0 mph9.7 kmh 29.91 in1012.9 mb 0.00 in0.0 mm 0.00 in0.0 mm 0.00 in0.0 mm
03:35 AM 23.4°F-4.8°C 21.9°F-5.6°C 94% 2.0 mph NE3.2 kmh NE 5.0 mph8.0 kmh 29.91 in1012.9 mb 0.00 in0.0 mm 0.00 in0.0 mm 0.00 in0.0 mm
03:30 AM 23.3°F-4.8°C 21.8°F-5.7°C 94% 2.0 mph NE3.2 kmh NE 6.0 mph9.7 kmh 29.91 in1012.9 mb 0.00 in0.0 mm 0.00 in0.0 mm 0.00 in0.0 mm
03:25 AM 23.3°F-4.8°C 21.8°F-5.7°C 94% 2.0 mph NE3.2 kmh NE 5.0 mph8.0 kmh 29.91 in1012.9 mb 0.00 in0.0 mm 0.00 in0.0 mm 0.00 in0.0 mm
03:20 AM 23.3°F-4.8°C 21.8°F-5.7°C 94% 2.0 mph NE3.2 kmh NE 5.0 mph8.0 kmh 29.91 in1012.9 mb 0.00 in0.0 mm 0.00 in0.0 mm 0.00 in0.0 mm
03:15 AM 23.2°F-4.9°C 21.7°F-5.7°C 94% 2.0 mph NE3.2 kmh NE 6.0 mph9.7 kmh 29.91 in1012.9 mb 0.00 in0.0 mm 0.00 in0.0 mm 0.00 in0.0 mm
03:10 AM 23.1°F-4.9°C 21.6°F-5.8°C 94% 2.0 mph NE3.2 kmh NE 7.0 mph11.3 kmh 29.91 in1012.9 mb 0.00 in0.0 mm 0.00 in0.0 mm 0.00 in0.0 mm
03:05 AM 23.1°F-4.9°C 21.6°F-5.8°C 94% 3.0 mph NE4.8 kmh NE 9.0 mph14.5 kmh 29.91 in1012.9 mb 0.00 in0.0 mm 0.00 in0.0 mm 0.00 in0.0 mm
03:00 AM 23.0°F-5.0°C 21.3°F-5.9°C 93% 2.0 mph NE3.2 kmh NE 5.0 mph8.0 kmh 29.91 in1012.9 mb 0.00 in0.0 mm 0.00 in0.0 mm 0.00 in0.0 mm
02:55 AM 23.0°F-5.0°C 21.3°F-5.9°C 93% 3.0 mph NE4.8 kmh NE 8.0 mph12.9 kmh 29.92 in1013.2 mb 0.00 in0.0 mm 0.00 in0.0 mm 0.00 in0.0 mm
02:50 AM 22.9°F-5.1°C 21.2°F-6.0°C 93% 1.0 mph NE1.6 kmh NE 4.0 mph6.4 kmh 29.92 in1013.2 mb 0.00 in0.0 mm 0.00 in0.0 mm 0.00 in0.0 mm
02:45 AM 22.8°F-5.1°C 21.1°F-6.1°C 93% 3.0 mph NE4.8 kmh NE 8.0 mph12.9 kmh 29.92 in1013.2 mb 0.00 in0.0 mm 0.00 in0.0 mm 0.00 in0.0 mm
02:40 AM 22.7°F-5.2°C 21.0°F-6.1°C 93% 3.0 mph NE4.8 kmh NE 11.0 mph17.7 kmh 29.92 in1013.2 mb 0.00 in0.0 mm 0.00 in0.0 mm 0.00 in0.0 mm
02:35 AM 22.7°F-5.2°C 21.0°F-6.1°C 93% 2.0 mph NE3.2 kmh NE 5.0 mph8.0 kmh 29.92 in1013.2 mb 0.00 in0.0 mm 0.00 in0.0 mm 0.00 in0.0 mm
02:30 AM 22.6°F-5.2°C 20.9°F-6.2°C 93% 3.0 mph NE4.8 kmh NE 11.0 mph17.7 kmh 29.92 in1013.2 mb 0.00 in0.0 mm 0.00 in0.0 mm 0.00 in0.0 mm
02:25 AM 22.5°F-5.3°C 20.8°F-6.2°C 93% 4.0 mph NE6.4 kmh NE 12.0 mph19.3 kmh 29.92 in1013.2 mb 0.00 in0.0 mm 0.00 in0.0 mm 0.00 in0.0 mm
02:20 AM 22.6°F-5.2°C 20.9°F-6.2°C 93% 3.0 mph NE4.8 kmh NE 8.0 mph12.9 kmh 29.91 in1012.9 mb 0.00 in0.0 mm 0.00 in0.0 mm 0.00 in0.0 mm
02:15 AM 22.6°F-5.2°C 20.9°F-6.2°C 93% 3.0 mph NE4.8 kmh NE 10.0 mph16.1 kmh 29.91 in1012.9 mb 0.00 in0.0 mm 0.00 in0.0 mm 0.00 in0.0 mm
02:10 AM 22.6°F-5.2°C 20.9°F-6.2°C 93% 3.0 mph NE4.8 kmh NE 10.0 mph16.1 kmh 29.91 in1012.9 mb 0.00 in0.0 mm 0.00 in0.0 mm 0.00 in0.0 mm
02:05 AM 22.7°F-5.2°C 21.0°F-6.1°C 93% 3.0 mph NE4.8 kmh NE 12.0 mph19.3 kmh 29.91 in1012.9 mb 0.00 in0.0 mm 0.00 in0.0 mm 0.00 in0.0 mm
02:00 AM 22.7°F-5.2°C 20.7°F-6.3°C 92% 4.0 mph NE6.4 kmh NE 11.0 mph17.7 kmh 29.91 in1012.9 mb 0.00 in0.0 mm 0.00 in0.0 mm 0.00 in0.0 mm
01:55 AM 22.7°F-5.2°C 20.7°F-6.3°C 92% 2.0 mph NE3.2 kmh NE 8.0 mph12.9 kmh 29.91 in1012.9 mb 0.00 in0.0 mm 0.00 in0.0 mm 0.00 in0.0 mm
01:50 AM 22.7°F-5.2°C 20.7°F-6.3°C 92% 3.0 mph NE4.8 kmh NE 11.0 mph17.7 kmh 29.91 in1012.9 mb 0.00 in0.0 mm 0.00 in0.0 mm 0.00 in0.0 mm
01:45 AM 22.7°F-5.2°C 20.7°F-6.3°C 92% 2.0 mph NNE3.2 kmh NNE 9.0 mph14.5 kmh 29.91 in1012.9 mb 0.00 in0.0 mm 0.00 in0.0 mm 0.00 in0.0 mm
01:40 AM 22.6°F-5.2°C 20.6°F-6.3°C 92% 4.0 mph NE6.4 kmh NE 11.0 mph17.7 kmh 29.91 in1012.9 mb 0.00 in0.0 mm 0.00 in0.0 mm 0.00 in0.0 mm
01:35 AM 22.7°F-5.2°C 20.7°F-6.3°C 92% 3.0 mph NE4.8 kmh NE 8.0 mph12.9 kmh 29.91 in1012.9 mb 0.00 in0.0 mm 0.00 in0.0 mm 0.00 in0.0 mm
01:30 AM 22.7°F-5.2°C 20.7°F-6.3°C 92% 2.0 mph NE3.2 kmh NE 6.0 mph9.7 kmh 29.91 in1012.9 mb 0.00 in0.0 mm 0.00 in0.0 mm 0.00 in0.0 mm
01:25 AM 22.7°F-5.2°C 20.7°F-6.3°C 92% 3.0 mph NE4.8 kmh NE 7.0 mph11.3 kmh 29.91 in1012.9 mb 0.00 in0.0 mm 0.00 in0.0 mm 0.00 in0.0 mm
01:20 AM 22.8°F-5.1°C 20.8°F-6.2°C 92% 1.0 mph NE1.6 kmh NE 5.0 mph8.0 kmh 29.91 in1012.9 mb 0.00 in0.0 mm 0.00 in0.0 mm 0.00 in0.0 mm
01:15 AM 22.9°F-5.1°C 20.9°F-6.2°C 92% 3.0 mph NE4.8 kmh NE 8.0 mph12.9 kmh 29.91 in1012.9 mb 0.00 in0.0 mm 0.00 in0.0 mm 0.00 in0.0 mm
01:10 AM 23.0°F-5.0°C 21.0°F-6.1°C 92% 2.0 mph NNE3.2 kmh NNE 9.0 mph14.5 kmh 29.91 in1012.9 mb 0.00 in0.0 mm 0.00 in0.0 mm 0.00 in0.0 mm
01:05 AM 23.1°F-4.9°C 21.1°F-6.1°C 92% 2.0 mph NNE3.2 kmh NNE 9.0 mph14.5 kmh 29.91 in1012.9 mb 0.00 in0.0 mm 0.00 in0.0 mm 0.00 in0.0 mm
01:00 AM 23.3°F-4.8°C 21.3°F-5.9°C 92% 2.0 mph NE3.2 kmh NE 10.0 mph16.1 kmh 29.91 in1012.9 mb 0.00 in0.0 mm 0.00 in0.0 mm 0.00 in0.0 mm
12:55 AM 23.5°F-4.7°C 21.3°F-5.9°C 91% 3.0 mph NE4.8 kmh NE 9.0 mph14.5 kmh 29.91 in1012.9 mb 0.00 in0.0 mm 0.00 in0.0 mm 0.00 in0.0 mm
12:50 AM 23.8°F-4.6°C 21.6°F-5.8°C 91% 2.0 mph NE3.2 kmh NE 9.0 mph14.5 kmh 29.91 in1012.9 mb 0.00 in0.0 mm 0.00 in0.0 mm 0.00 in0.0 mm
12:45 AM 24.2°F-4.3°C 22.0°F-5.6°C 91% 2.0 mph NE3.2 kmh NE 8.0 mph12.9 kmh 29.92 in1013.2 mb 0.00 in0.0 mm 0.00 in0.0 mm 0.00 in0.0 mm
12:40 AM 24.6°F-4.1°C 22.4°F-5.3°C 91% 2.0 mph NE3.2 kmh NE 6.0 mph9.7 kmh 29.91 in1012.9 mb 0.00 in0.0 mm 0.00 in0.0 mm 0.00 in0.0 mm
12:35 AM 25.1°F-3.8°C 23.1°F-4.9°C 92% 1.0 mph NE1.6 kmh NE 5.0 mph8.0 kmh 29.91 in1012.9 mb 0.00 in0.0 mm 0.00 in0.0 mm 0.00 in0.0 mm
12:30 AM 25.6°F-3.6°C 23.6°F-4.7°C 92% 2.0 mph NE3.2 kmh NE 6.0 mph9.7 kmh 29.91 in1012.9 mb 0.00 in0.0 mm 0.00 in0.0 mm 0.00 in0.0 mm
12:25 AM 25.9°F-3.4°C 24.2°F-4.3°C 93% 1.0 mph NE1.6 kmh NE 3.0 mph4.8 kmh 29.91 in1012.9 mb 0.00 in0.0 mm 0.00 in0.0 mm 0.00 in0.0 mm
12:20 AM 26.0°F-3.3°C 24.3°F-4.3°C 93% Calm Calm 2.0 mph3.2 kmh 29.91 in1012.9 mb 0.00 in0.0 mm 0.00 in0.0 mm 0.00 in0.0 mm
12:15 AM 26.0°F-3.3°C 24.3°F-4.3°C 93% Calm Calm 2.0 mph3.2 kmh 29.91 in1012.9 mb 0.00 in0.0 mm 0.00 in0.0 mm 0.00 in0.0 mm
12:10 AM 26.1°F-3.3°C 24.4°F-4.2°C 93% Calm Calm 3.0 mph4.8 kmh 29.92 in1013.2 mb 0.00 in0.0 mm 0.00 in0.0 mm 0.00 in0.0 mm
12:05 AM 26.1°F-3.3°C 24.4°F-4.2°C 93% Calm Calm 1.0 mph1.6 kmh 29.92 in1013.2 mb 0.00 in0.0 mm 0.00 in0.0 mm 0.00 in0.0 mm
12:00 AM 26.2°F-3.2°C 24.5°F-4.2°C 93% Calm Calm 3.0 mph4.8 kmh 29.92 in1013.2 mb 0.00 in0.0 mm 0.00 in0.0 mm 0.00 in0.0 mm